Winter Park, CO (80482)

6:46 PM MDT on April 01, 2015 (GMT -0600)
Winter Park Ranch | | Change Station
CLOSE
Current Station
Personal Weather Station
Location: Winter Park, CO
Elevation: 8878 ft
Nearby Weather Stations

Elev 8878 ft 39.95 °N, 105.80 °W | Updated 1 minute ago

Overcast
Overcast
38.1 °F
Feels Like 38 °F
N
0.0
Wind Variable Wind from WSW
Gusts 0.4 mph

Today
High -- | Low -- °F
--% Chance of Precip.
Yesterday
High -- | Low -- °F
Precip. -- in
6:47 AM 7:27 PM
Waxing Gibbous, 95% visible
Pressure 29.90 in
Visibility 10.0 miles
Clouds Clear
Windchill 38 °F
Dew Point 30 °F
Humidity 71%
Rainfall 0.00 in
Snow Depth Not available.
UV 1 out of 12
Pollen 11.10 out of 12
Air Quality Not available.
Flu Activity Not available.
METAR K20V 020036Z AUTO 34005KT 10SM CLR 11/M07 A2990 RMK AO2

More Conditions Fewer Conditions

Pressure 29.90 in
Visibility 10.0 miles
Clouds Clear
Windchill 38 °F
Dew Point 30 °F
Humidity 71%
Rainfall 0.00 in
Snow Depth Not available.
UV 1 out of 12
Pollen 11.10 out of 12
Air Quality Not available.
Flu Activity Not available.
METAR K20V 020036Z AUTO 34005KT 10SM CLR 11/M07 A2990 RMK AO2

More Conditions Fewer Conditions

Nowcast | as of 5:54 PM MDT on April 1, 2015

Scattered rain showers and isolated thunderstorms will move across the the Front Range mountains through the early evening. The snow level will be around 12 thousand feet. The storms will produce brief light to moderate rainfall...up to a tenth of an inch...wind gusts to 45 mph and cloud to ground lightning.

×

10-Day Weather Forecast

Almanac

Astronomy

Apr. 01, 2015 Rise Set
Actual Time
Civil Twilight
Nautical Twilight
Astronomical Twilight
Moon
Length of Visible Light
Length of Day
Tomorrow will be .
, % of the Moon is Illuminated

Today's Extremes

State Highs State Lows

Community

WunderPhotos

Upload Photos

1,810,136 photos uploaded!

WunderBlogs® & News

Nearby

Air Quality

  Air Quality AQ Index Pollutant
Not available.

Snow Depth

Station Depth Elevation

Earthquake Activity

City Distance Mag. Time & Date
Minimum magnitude displayed is 2.5.

Coastal Water Temperatures

Place Temperature

Stations

Nearby Weather Stations

Station Location Temp. Windchill Dew Point Humidity Wind Precip. Elev Updated Type